Time;durP1;ratioP1;P1;durP2;ratioP2;P2;SDS_P1;SDS_P2;PMS_P1;PMS_P2;Temp;Humidity;BMP_temperature;BMP_pressure;BME280_temperature;BME280_humidity;BME280_pressure;Samples;Min_cycle;Max_cycle;Signal;HPM_P1;HPM_P2
2022/06/27 00:00:37;;;;;;;13.40;7.20;;;;;;;21.65;60.49;99403.39;25177;1315;3054071;-55
2022/06/27 00:03:06;;;;;;;10.60;6.60;;;;;;;21.59;60.71;99404.27;25117;1315;3026402;-59
2022/06/27 00:05:35;;;;;;;16.30;7.30;;;;;;;21.59;60.82;99404.29;25081;1315;3049991;-58
2022/06/27 00:08:04;;;;;;;11.50;7.10;;;;;;;21.58;60.79;99405.71;25055;1315;3026683;-59
2022/06/27 00:10:39;;;;;;;12.30;6.40;;;;;;;21.52;61.17;99409.49;25111;1315;3069076;-59
2022/06/27 00:13:08;;;;;;;9.40;7.40;;;;;;;21.58;60.84;99408.70;25032;1315;3028829;-58
2022/06/27 00:15:37;;;;;;;13.20;6.60;;;;;;;21.57;60.88;99410.19;25088;1315;3026351;-59
2022/06/27 00:18:07;;;;;;;11.80;6.50;;;;;;;21.51;61.41;99412.10;25028;1315;3070633;-59
2022/06/27 00:20:36;;;;;;;11.80;7.10;;;;;;;21.48;61.37;99415.10;25079;1315;3026132;-60
2022/06/27 00:23:05;;;;;;;19.00;7.10;;;;;;;21.46;61.77;99406.98;25096;1315;3026327;-59
2022/06/27 00:25:34;;;;;;;10.90;7.20;;;;;;;21.44;61.85;99408.92;25027;1315;3070154;-59
2022/06/27 00:28:07;;;;;;;13.70;6.50;;;;;;;21.45;61.80;99406.54;25081;1315;3053191;-58
2022/06/27 00:30:39;;;;;;;11.50;6.90;;;;;;;21.46;61.67;99411.02;25046;1315;3027588;-60
2022/06/27 00:33:08;;;;;;;11.10;6.90;;;;;;;21.44;61.92;99411.21;24982;1315;3030278;-59
2022/06/27 00:35:37;;;;;;;13.60;7.30;;;;;;;21.47;61.64;99414.50;25093;1315;3026376;-59
2022/06/27 00:38:06;;;;;;;10.20;7.30;;;;;;;21.47;61.82;99415.71;25081;1314;3028425;-60
2022/06/27 00:40:36;;;;;;;15.60;7.60;;;;;;;21.46;61.91;99417.10;25036;1315;3052144;-58
2022/06/27 00:43:05;;;;;;;12.80;7.70;;;;;;;21.42;61.84;99411.95;25074;1315;3026955;-59
2022/06/27 00:45:34;;;;;;;8.20;6.50;;;;;;;21.44;61.84;99412.48;25065;1315;3055160;-59
2022/06/27 00:48:04;;;;;;;11.20;6.70;;;;;;;21.46;61.63;99410.29;25086;1315;3028235;-58
2022/06/27 00:50:33;;;;;;;11.60;6.60;;;;;;;21.45;61.74;99410.17;25084;1315;3027164;-60
2022/06/27 00:53:02;;;;;;;15.00;6.90;;;;;;;21.42;62.09;99414.13;25061;1315;3026576;-57
2022/06/27 00:55:31;;;;;;;10.30;7.00;;;;;;;21.36;62.22;99412.24;25074;1315;3054228;-59
2022/06/27 00:58:01;;;;;;;11.50;7.20;;;;;;;21.36;62.04;99413.33;25116;1315;3027210;-59
2022/06/27 01:00:30;;;;;;;10.10;7.50;;;;;;;21.34;62.27;99410.30;25032;1315;3026741;-60
2022/06/27 01:02:59;;;;;;;12.20;7.00;;;;;;;21.33;62.56;99416.35;25106;1315;3051919;-57
2022/06/27 01:05:28;;;;;;;9.50;6.60;;;;;;;21.34;62.25;99416.05;25050;1315;3027044;-59
2022/06/27 01:07:58;;;;;;;13.80;6.30;;;;;;;21.31;62.54;99414.20;25072;1315;3052372;-59
2022/06/27 01:10:27;;;;;;;18.70;7.10;;;;;;;21.31;62.44;99412.96;25088;1315;3026907;-58
2022/06/27 01:12:56;;;;;;;10.00;7.00;;;;;;;21.33;62.34;99410.63;25046;1315;3051020;-59
2022/06/27 01:15:25;;;;;;;11.90;6.60;;;;;;;21.32;62.43;99413.40;25096;1315;3026568;-57
2022/06/27 01:17:54;;;;;;;11.10;6.80;;;;;;;21.34;62.24;99414.08;24989;1315;3069524;-58
2022/06/27 01:20:23;;;;;;;12.40;6.40;;;;;;;21.34;62.24;99413.58;25057;1315;3028273;-58
2022/06/27 01:22:54;;;;;;;9.60;6.90;;;;;;;21.37;62.12;99417.21;25088;1315;3027004;-58
2022/06/27 01:25:25;;;;;;;9.90;6.40;;;;;;;21.35;62.17;99417.14;25061;1315;3028946;-61
2022/06/27 01:27:54;;;;;;;10.60;6.20;;;;;;;21.31;62.59;99415.50;25047;1315;3026539;-58
2022/06/27 01:30:23;;;;;;;13.30;6.60;;;;;;;21.30;62.60;99416.88;25065;1315;3054097;-59
2022/06/27 01:32:53;;;;;;;18.10;6.80;;;;;;;21.28;62.46;99415.60;25070;1315;3026934;-58
2022/06/27 01:35:22;;;;;;;11.30;6.30;;;;;;;21.25;62.73;99415.96;25029;1315;3026854;-58
2022/06/27 01:37:51;;;;;;;16.20;7.00;;;;;;;21.25;62.70;99420.59;25082;1315;3051563;-59
2022/06/27 01:40:21;;;;;;;15.70;7.30;;;;;;;21.23;62.62;99417.35;25043;1315;3026486;-58
2022/06/27 01:42:52;;;;;;;14.00;7.20;;;;;;;21.21;62.82;99422.23;25071;1315;3053051;-58
2022/06/27 01:45:22;;;;;;;11.10;7.50;;;;;;;21.20;62.92;99426.43;25038;1315;3026503;-58
2022/06/27 01:47:51;;;;;;;13.90;7.00;;;;;;;21.19;62.99;99424.59;25105;1315;3026786;-58
2022/06/27 01:50:20;;;;;;;12.10;6.90;;;;;;;21.20;62.74;99423.83;25039;1315;3026928;-59
2022/06/27 01:52:51;;;;;;;10.70;6.20;;;;;;;21.17;63.12;99428.39;25079;1315;3054113;-57
2022/06/27 01:55:21;;;;;;;12.00;6.30;;;;;;;21.18;62.91;99428.66;25103;1314;3026394;-60
2022/06/27 01:57:50;;;;;;;10.60;5.90;;;;;;;21.18;62.71;99431.97;25046;1315;3047189;-58
2022/06/27 02:00:19;;;;;;;12.30;5.20;;;;;;;21.21;62.58;99432.91;25067;1315;3026461;-59
2022/06/27 02:03:00;;;;;;;10.00;5.20;;;;;;;21.19;62.95;99429.70;25038;1315;3054974;-58
2022/06/27 02:05:38;;;;;;;12.20;5.40;;;;;;;21.18;62.85;99430.86;25037;1315;3059211;-58
2022/06/27 02:08:07;;;;;;;7.40;5.00;;;;;;;21.16;62.83;99438.60;25094;1315;3026443;-59
2022/06/27 02:10:36;;;;;;;11.80;4.90;;;;;;;21.16;62.80;99439.14;25022;1315;3053630;-59
2022/06/27 02:13:05;;;;;;;8.40;5.10;;;;;;;21.17;62.87;99437.80;25100;1315;3026011;-59
2022/06/27 02:15:34;;;;;;;9.90;4.70;;;;;;;21.16;62.76;99437.70;25039;1315;3054709;-58
2022/06/27 02:18:04;;;;;;;9.70;4.20;;;;;;;21.17;62.62;99436.00;25102;1315;3026379;-60
2022/06/27 02:20:33;;;;;;;9.30;4.70;;;;;;;21.19;62.62;99436.91;25112;1314;3049014;-58
2022/06/27 02:23:03;;;;;;;8.60;4.60;;;;;;;21.22;62.48;99440.50;25070;1315;3026748;-59
2022/06/27 02:25:32;;;;;;;8.80;4.80;;;;;;;21.23;62.42;99436.59;25055;1315;3071436;-59
2022/06/27 02:28:01;;;;;;;5.80;3.90;;;;;;;21.25;62.30;99437.83;25112;1315;3026455;-59
2022/06/27 02:30:30;;;;;;;6.30;4.30;;;;;;;21.29;61.86;99442.18;25016;1315;3053697;-58
2022/06/27 02:32:59;;;;;;;7.30;4.10;;;;;;;21.30;61.79;99448.73;25036;1315;3026584;-60
2022/06/27 02:35:28;;;;;;;8.50;3.90;;;;;;;21.27;61.84;99442.62;25015;1315;3054901;-57
2022/06/27 02:37:57;;;;;;;8.30;4.20;;;;;;;21.29;61.51;99443.79;25044;1315;3026511;-58
2022/06/27 02:40:29;;;;;;;9.40;4.50;;;;;;;21.34;61.40;99446.57;25064;1315;3052061;-59
2022/06/27 02:42:59;;;;;;;16.80;5.20;;;;;;;21.38;61.27;99442.54;25069;1315;3027241;-60
2022/06/27 02:45:31;;;;;;;11.20;4.20;;;;;;;21.36;61.39;99440.45;25061;1315;3026778;-59
2022/06/27 02:48:00;;;;;;;9.10;3.90;;;;;;;21.41;61.19;99440.61;25073;1315;3027164;-58
2022/06/27 02:50:31;;;;;;;8.60;4.70;;;;;;;21.42;60.96;99441.45;25065;1315;3026622;-59
2022/06/27 02:53:04;;;;;;;7.70;4.20;;;;;;;21.41;61.11;99437.43;25078;1315;3051684;-58
2022/06/27 02:55:38;;;;;;;10.80;5.70;;;;;;;21.45;60.77;99444.99;25121;1315;3028345;-60
2022/06/27 02:58:19;;;;;;;17.70;7.30;;;;;;;21.47;61.07;99443.87;25056;1315;3049453;-58
2022/06/27 03:00:49;;;;;;;16.10;7.30;;;;;;;21.48;61.25;99440.43;25067;1315;3052522;-58
2022/06/27 03:03:18;;;;;;;16.00;7.00;;;;;;;21.47;61.19;99437.14;25123;1315;3030493;-59
2022/06/27 03:05:55;;;;;;;19.10;7.50;;;;;;;21.47;60.55;99439.68;25137;1315;3026517;-59
2022/06/27 03:08:25;;;;;;;15.80;7.30;;;;;;;21.51;60.43;99445.45;25052;1315;3048616;-60
2022/06/27 03:10:55;;;;;;;14.50;7.30;;;;;;;21.54;60.50;99442.30;25051;1315;3027424;-59
2022/06/27 03:13:24;;;;;;;11.70;6.10;;;;;;;21.57;60.12;99443.44;25093;1315;3026763;-60
2022/06/27 03:15:57;;;;;;;15.00;6.00;;;;;;;21.62;59.88;99442.81;25065;1314;3052405;-58
2022/06/27 03:18:26;;;;;;;8.10;5.50;;;;;;;21.67;59.94;99444.85;25021;1315;3027029;-59
2022/06/27 03:21:11;;;;;;;12.90;5.40;;;;;;;21.72;59.87;99446.06;25036;1315;3053830;-59
2022/06/27 03:23:41;;;;;;;9.90;5.10;;;;;;;21.76;59.25;99448.23;25046;1315;3026857;-58
2022/06/27 03:26:10;;;;;;;8.20;5.80;;;;;;;21.77;59.49;99445.86;25045;1315;3027085;-59
2022/06/27 03:28:40;;;;;;;10.50;5.50;;;;;;;21.79;59.90;99447.41;25068;1315;3026812;-57
2022/06/27 03:31:09;;;;;;;11.90;5.50;;;;;;;21.82;59.84;99452.30;25129;1315;3026698;-59
2022/06/27 03:33:41;;;;;;;12.90;6.00;;;;;;;21.81;60.23;99453.16;25124;1315;3026667;-58
2022/06/27 03:36:34;;;;;;;11.70;5.80;;;;;;;21.81;60.16;99451.55;24985;1315;3052930;-59
2022/06/27 03:39:04;;;;;;;13.20;5.90;;;;;;;21.77;60.47;99450.83;25107;1315;3026046;-58
2022/06/27 03:41:34;;;;;;;9.30;5.20;;;;;;;21.81;59.98;99453.52;25081;1315;3027106;-58
2022/06/27 03:44:04;;;;;;;12.20;6.10;;;;;;;21.84;60.12;99452.66;25106;1315;3026654;-59
2022/06/27 03:46:36;;;;;;;8.50;5.10;;;;;;;21.83;60.01;99452.21;25044;1315;3056111;-59
2022/06/27 03:52:03;;;;;;;9.00;4.60;;;;;;;21.94;58.10;99451.28;25043;1315;3071193;-61
2022/06/27 03:54:32;;;;;;;7.90;4.50;;;;;;;21.93;57.09;99447.58;25039;1315;3026266;-59
2022/06/27 03:57:01;;;;;;;8.30;4.10;;;;;;;22.01;56.96;99449.75;25124;1315;3027166;-58
2022/06/27 03:59:31;;;;;;;10.30;4.70;;;;;;;22.10;57.07;99445.36;25102;1315;3070126;-57
2022/06/27 04:02:00;;;;;;;14.80;5.10;;;;;;;22.11;57.71;99446.33;25076;1315;3026262;-58
2022/06/27 04:04:36;;;;;;;11.40;4.40;;;;;;;22.14;57.46;99441.31;25030;1318;3051488;-59
2022/06/27 04:07:06;;;;;;;9.50;4.90;;;;;;;22.23;57.16;99443.81;25057;1315;3026204;-60
2022/06/27 04:09:35;;;;;;;8.30;4.90;;;;;;;22.26;57.12;99438.09;25099;1315;3026282;-59
2022/06/27 04:12:04;;;;;;;10.00;4.80;;;;;;;22.29;57.06;99435.98;25039;1315;3053341;-58
2022/06/27 04:14:53;;;;;;;10.00;4.80;;;;;;;22.38;56.62;99443.23;25079;1315;3071092;-59
2022/06/27 04:17:39;;;;;;;6.60;5.10;;;;;;;22.41;56.14;99439.34;25061;1315;3052258;-60
2022/06/27 04:20:27;;;;;;;14.40;4.60;;;;;;;22.48;55.25;99442.13;25102;1315;3055341;-59
2022/06/27 04:23:04;;;;;;;12.50;4.70;;;;;;;22.55;55.21;99441.73;25047;1315;3052975;-59
2022/06/27 04:26:08;;;;;;;12.30;4.10;;;;;;;22.64;54.91;99441.26;25044;1315;3057589;-59
2022/06/27 04:28:39;;;;;;;8.90;4.60;;;;;;;22.71;54.59;99437.08;25014;1315;3026405;-59
2022/06/27 04:31:10;;;;;;;6.70;4.00;;;;;;;22.77;54.70;99439.43;25038;1315;3026544;-59
2022/06/27 04:33:39;;;;;;;12.50;4.50;;;;;;;22.83;53.69;99442.29;25096;1315;3056714;-60
2022/06/27 04:36:09;;;;;;;11.80;4.10;;;;;;;22.84;53.65;99449.15;25023;1315;3026482;-59
2022/06/27 04:38:38;;;;;;;12.60;4.10;;;;;;;22.88;53.40;99448.36;25079;1315;3027078;-59
2022/06/27 04:41:34;;;;;;;9.40;4.60;;;;;;;22.94;53.36;99442.31;25045;1315;3054435;-58
2022/06/27 04:44:03;;;;;;;9.70;4.00;;;;;;;23.02;53.24;99442.55;25100;1315;3026939;-60
2022/06/27 04:46:33;;;;;;;11.10;3.90;;;;;;;23.11;53.02;99447.50;25067;1315;3056157;-60
2022/06/27 04:49:26;;;;;;;12.20;4.40;;;;;;;23.17;52.72;99440.63;25079;1315;3054918;-59
2022/06/27 04:51:55;;;;;;;8.30;3.80;;;;;;;23.18;52.40;99438.58;25079;1315;3027112;-59
2022/06/27 04:54:25;;;;;;;7.90;4.00;;;;;;;23.23;52.07;99443.24;25014;1315;3027794;-60
2022/06/27 04:56:54;;;;;;;8.40;3.70;;;;;;;23.31;51.80;99447.86;25057;1315;3026440;-59
2022/06/27 04:59:24;;;;;;;5.80;3.80;;;;;;;23.36;51.92;99448.52;25081;1315;3026847;-59
2022/06/27 05:02:02;;;;;;;8.40;4.00;;;;;;;23.43;51.77;99448.64;25081;1314;3057048;-59
2022/06/27 05:04:32;;;;;;;8.00;3.80;;;;;;;23.50;51.44;99449.48;25079;1315;3027118;-59
2022/06/27 05:07:02;;;;;;;9.90;4.00;;;;;;;23.55;51.12;99453.67;25084;1315;3026463;-59
2022/06/27 05:09:31;;;;;;;9.60;4.10;;;;;;;23.57;51.05;99453.46;25089;1315;3026414;-58
2022/06/27 05:12:01;;;;;;;8.00;3.80;;;;;;;23.57;51.27;99456.08;25056;1315;3026385;-59
2022/06/27 05:14:32;;;;;;;8.80;3.90;;;;;;;23.68;51.21;99456.50;25066;1315;3027351;-58
2022/06/27 05:17:04;;;;;;;12.90;4.40;;;;;;;23.70;51.10;99458.40;25105;1315;3026714;-60
2022/06/27 05:19:34;;;;;;;6.70;3.90;;;;;;;23.77;50.90;99454.11;25121;1314;3026851;-60
2022/06/27 05:22:04;;;;;;;9.90;4.30;;;;;;;23.83;50.48;99456.73;25033;1314;3027381;-59
2022/06/27 05:24:33;;;;;;;7.90;4.00;;;;;;;23.89;50.25;99452.38;25064;1315;3026609;-59
2022/06/27 05:27:03;;;;;;;6.70;3.60;;;;;;;23.91;49.85;99455.26;25049;1315;3055882;-59
2022/06/27 05:29:32;;;;;;;10.00;4.00;;;;;;;23.93;49.95;99452.81;24959;1315;3026197;-60
2022/06/27 05:32:03;;;;;;;10.70;3.90;;;;;;;23.96;49.64;99456.36;25012;1315;3026470;-59
2022/06/27 05:34:34;;;;;;;4.90;3.70;;;;;;;24.09;49.43;99458.48;25013;1315;3028423;-59
2022/06/27 05:37:05;;;;;;;10.30;3.90;;;;;;;24.18;49.23;99455.80;25081;1315;3026437;-60
2022/06/27 05:39:34;;;;;;;10.40;3.90;;;;;;;24.28;48.60;99458.27;25053;1315;3053787;-59
2022/06/27 05:42:03;;;;;;;7.90;3.30;;;;;;;24.36;48.00;99462.46;25106;1315;3027392;-59
2022/06/27 05:44:33;;;;;;;9.40;3.80;;;;;;;24.48;47.63;99453.56;25116;1315;3057185;-58
2022/06/27 05:47:03;;;;;;;4.70;3.30;;;;;;;24.58;47.08;99449.31;25048;1315;3026858;-61
2022/06/27 05:49:33;;;;;;;10.00;3.30;;;;;;;24.68;46.42;99452.64;25053;1315;3027687;-63
2022/06/27 05:52:03;;;;;;;9.10;3.70;;;;;;;24.74;46.07;99447.19;25068;1315;3026822;-62
2022/06/27 05:54:34;;;;;;;8.70;3.40;;;;;;;24.83;46.23;99446.68;25030;1315;3026461;-62
2022/06/27 05:57:05;;;;;;;6.40;3.20;;;;;;;24.89;45.69;99447.05;25102;1315;3027137;-59
2022/06/27 05:59:36;;;;;;;7.50;3.50;;;;;;;24.93;44.87;99446.93;25101;1315;3026642;-58
2022/06/27 06:02:05;;;;;;;7.10;3.10;;;;;;;25.07;45.09;99443.23;25073;1315;3026476;-60
2022/06/27 06:04:36;;;;;;;12.30;3.60;;;;;;;25.21;44.84;99446.27;25081;1315;3026652;-59
2022/06/27 06:07:08;;;;;;;6.90;3.40;;;;;;;25.32;44.84;99450.80;25100;1315;3026912;-58
2022/06/27 06:09:38;;;;;;;10.70;3.60;;;;;;;25.40;44.60;99452.67;25044;1315;3026874;-59
2022/06/27 06:12:12;;;;;;;12.50;3.80;;;;;;;25.47;43.94;99450.73;25092;1315;3026422;-60
2022/06/27 06:14:43;;;;;;;14.10;3.40;;;;;;;25.54;43.60;99450.36;25066;1315;3049740;-59
2022/06/27 06:17:12;;;;;;;7.20;2.80;;;;;;;25.63;43.15;99451.15;25039;1315;3026536;-60
2022/06/27 06:19:41;;;;;;;6.90;2.80;;;;;;;25.70;42.09;99454.19;25117;1315;3026337;-62
2022/06/27 06:22:10;;;;;;;12.30;3.20;;;;;;;25.75;41.73;99452.71;25025;1315;3048815;-59
2022/06/27 06:24:39;;;;;;;9.90;3.40;;;;;;;25.76;41.96;99454.30;25123;1315;3026397;-60
2022/06/27 06:27:08;;;;;;;7.20;3.40;;;;;;;25.83;42.32;99456.35;25029;1315;3058339;-59
2022/06/27 06:29:40;;;;;;;10.30;3.30;;;;;;;25.88;42.18;99455.23;25053;1315;3026324;-59
2022/06/27 06:32:11;;;;;;;8.50;3.40;;;;;;;25.93;42.12;99465.13;25003;1315;3030888;-60
2022/06/27 06:34:40;;;;;;;10.50;3.20;;;;;;;25.96;41.93;99461.52;25056;1315;3027655;-60
2022/06/27 06:37:10;;;;;;;11.20;3.30;;;;;;;26.02;42.06;99463.52;25110;1315;3026624;-58
2022/06/27 06:39:41;;;;;;;7.00;3.30;;;;;;;26.05;42.07;99463.69;25076;1315;3026182;-60
2022/06/27 06:42:10;;;;;;;6.10;3.00;;;;;;;26.12;42.52;99463.34;25081;1315;3026601;-60
2022/06/27 06:44:49;;;;;;;10.30;3.10;;;;;;;26.21;42.41;99460.64;25065;1315;3071010;-59
2022/06/27 06:47:45;;;;;;;6.00;2.90;;;;;;;26.31;42.42;99464.39;25021;1315;3051517;-60
2022/06/27 06:50:18;;;;;;;8.90;3.20;;;;;;;26.41;42.24;99464.80;25010;1315;3027215;-59
2022/06/27 06:52:51;;;;;;;6.40;2.90;;;;;;;26.51;42.36;99468.35;25106;1315;3026664;-60
2022/06/27 06:55:21;;;;;;;8.40;3.20;;;;;;;26.57;42.70;99470.54;25066;1314;3027106;-60
2022/06/27 06:57:50;;;;;;;6.40;3.50;;;;;;;26.65;42.58;99469.30;25096;1315;3026855;-58
2022/06/27 07:00:20;;;;;;;6.30;3.20;;;;;;;26.77;42.33;99466.96;25087;1315;3026916;-59
2022/06/27 07:02:49;;;;;;;7.10;3.40;;;;;;;26.85;42.07;99464.10;25193;1313;3057071;-65
2022/06/27 07:05:19;;;;;;;17.70;3.50;;;;;;;26.88;41.98;99464.48;25088;1313;3026758;-61
2022/06/27 07:07:51;;;;;;;12.50;3.30;;;;;;;26.93;42.10;99463.98;25062;1312;3027049;-61
2022/06/27 07:10:21;;;;;;;10.60;3.30;;;;;;;27.04;41.71;99466.55;25082;1315;3057434;-60
2022/06/27 07:13:16;;;;;;;5.40;3.30;;;;;;;27.07;41.19;99467.77;25088;1313;3049123;-60
2022/06/27 07:15:46;;;;;;;7.20;2.80;;;;;;;27.10;41.18;99468.28;25087;1313;3026143;-60
2022/06/27 07:18:15;;;;;;;6.90;3.20;;;;;;;27.17;40.69;99471.80;25116;1313;3025978;-59
2022/06/27 07:20:45;;;;;;;8.90;3.30;;;;;;;27.27;40.87;99479.92;25060;1313;3026679;-59
2022/06/27 07:23:15;;;;;;;7.00;3.30;;;;;;;27.35;40.69;99478.67;25091;1315;3053652;-60
2022/06/27 07:25:45;;;;;;;7.40;2.80;;;;;;;27.47;40.73;99480.59;25087;1315;3027420;-62
2022/06/27 07:28:16;;;;;;;5.90;3.10;;;;;;;27.56;40.36;99474.80;25077;1316;3026541;-60
2022/06/27 07:30:47;;;;;;;5.90;3.00;;;;;;;27.67;39.89;99473.78;25064;1315;3055472;-60
2022/06/27 07:33:17;;;;;;;11.80;3.00;;;;;;;27.74;39.54;99475.56;24673;1315;3573453;-61
2022/06/27 07:35:45;;;;;;;5.80;2.50;;;;;;;27.74;39.50;99477.77;25092;1313;3026460;-59
2022/06/27 07:38:15;;;;;;;7.50;2.90;;;;;;;27.80;39.14;99469.67;25068;1313;3054615;-60
2022/06/27 07:40:44;;;;;;;7.60;3.00;;;;;;;27.92;38.78;99472.79;25085;1313;3026153;-60
2022/06/27 07:43:15;;;;;;;6.20;2.60;;;;;;;27.97;38.48;99472.30;25088;1315;3051882;-61
2022/06/27 07:45:44;;;;;;;7.40;2.80;;;;;;;28.06;38.10;99476.03;25065;1313;3026565;-60
2022/06/27 07:48:16;;;;;;;9.20;2.70;;;;;;;28.10;38.05;99469.13;25145;1315;3026512;-60
2022/06/27 07:50:46;;;;;;;5.40;2.70;;;;;;;28.09;37.92;99471.42;25091;1312;3048835;-61
2022/06/27 07:53:15;;;;;;;9.40;2.60;;;;;;;28.19;37.99;99474.00;25287;1313;3026781;-60
2022/06/27 07:55:49;;;;;;;7.00;2.70;;;;;;;28.30;37.83;99465.39;25057;1313;3026722;-58
2022/06/27 07:58:21;;;;;;;16.80;2.90;;;;;;;28.39;37.55;99466.34;25025;1313;3049714;-60
2022/06/27 08:00:50;;;;;;;6.80;3.10;;;;;;;28.45;37.24;99463.54;25031;1315;3026271;-58
2022/06/27 08:06:10;;;;;;;7.70;2.40;;;;;;;28.53;37.10;99472.77;25073;1313;3054997;-59
2022/06/27 08:08:44;;;;;;;8.20;2.50;;;;;;;28.54;36.98;99469.75;25069;1313;3027349;-62
2022/06/27 08:11:18;;;;;;;6.90;2.60;;;;;;;28.64;36.51;99471.88;25114;1315;3026877;-60
2022/06/27 08:13:48;;;;;;;6.80;2.60;;;;;;;28.70;36.37;99466.30;25095;1313;3069833;-60
2022/06/27 08:16:18;;;;;;;10.00;2.70;;;;;;;28.76;36.48;99458.80;25070;1313;3026519;-60
2022/06/27 08:18:48;;;;;;;5.90;2.20;;;;;;;28.80;36.42;99462.20;25182;1313;3026925;-62
2022/06/27 08:21:24;;;;;;;5.70;2.20;;;;;;;28.85;36.28;99459.20;25129;1314;3027432;-63
2022/06/27 08:23:56;;;;;;;15.10;2.90;;;;;;;28.90;36.39;99455.11;25094;1315;3057450;-62
2022/06/27 08:26:26;;;;;;;4.20;2.30;;;;;;;28.92;36.10;99453.63;25067;1313;3026604;-62
2022/06/27 08:28:56;;;;;;;7.40;2.80;;;;;;;29.00;36.08;99457.31;25129;1313;3026264;-59
2022/06/27 08:31:26;;;;;;;5.10;2.50;;;;;;;29.05;35.64;99459.08;25115;1313;3027222;-61
2022/06/27 08:33:59;;;;;;;5.30;2.20;;;;;;;29.21;35.56;99453.98;25092;1315;3026490;-60
2022/06/27 08:36:30;;;;;;;3.20;2.30;;;;;;;29.30;35.30;99453.63;25109;1313;3026314;-60
2022/06/27 08:39:01;;;;;;;4.30;2.40;;;;;;;29.29;35.60;99456.08;25108;1316;3026561;-62
2022/06/27 08:41:30;;;;;;;10.30;2.60;;;;;;;29.42;35.57;99460.05;25060;1313;3026745;-59
2022/06/27 08:44:04;;;;;;;9.30;2.70;;;;;;;29.53;35.28;99455.87;25054;1313;3026223;-62
2022/06/27 08:46:34;;;;;;;5.70;2.50;;;;;;;29.57;34.42;99457.30;25124;1312;3049473;-61
2022/06/27 08:49:04;;;;;;;9.00;2.70;;;;;;;29.59;34.70;99463.02;25075;1315;3026290;-60
2022/06/27 08:51:33;;;;;;;4.90;2.20;;;;;;;29.57;34.09;99463.59;25105;1313;3057024;-61
2022/06/27 08:54:03;;;;;;;11.80;3.00;;;;;;;29.67;33.78;99460.16;25059;1313;3026259;-62
2022/06/27 08:56:33;;;;;;;6.60;2.30;;;;;;;29.82;33.59;99460.46;25067;1316;3052735;-60
2022/06/27 08:59:03;;;;;;;4.40;2.40;;;;;;;29.90;33.76;99460.67;25102;1315;3026461;-59
2022/06/27 09:01:33;;;;;;;4.30;2.20;;;;;;;30.04;33.88;99458.04;25083;1313;3026589;-60
2022/06/27 09:04:03;;;;;;;6.30;2.60;;;;;;;30.09;33.31;99458.96;25090;1313;3026308;-60
2022/06/27 09:06:51;;;;;;;8.60;2.50;;;;;;;30.11;32.79;99461.80;25108;1316;3058287;-59
2022/06/27 09:09:24;;;;;;;4.90;2.20;;;;;;;30.11;33.28;99461.14;25034;1315;3052244;-60
2022/06/27 09:11:54;;;;;;;5.80;2.50;;;;;;;30.21;33.40;99460.80;25081;1313;3026730;-61
2022/06/27 09:14:39;;;;;;;3.30;2.20;;;;;;;30.26;33.26;99462.43;25100;1313;3026607;-60
2022/06/27 09:17:15;;;;;;;3.70;2.20;;;;;;;30.28;33.11;99459.83;25029;1313;3069734;-62
2022/06/27 09:19:53;;;;;;;6.30;2.70;;;;;;;30.28;32.87;99457.23;25120;1313;3049456;-61
2022/06/27 09:22:25;;;;;;;6.30;2.20;;;;;;;30.41;32.37;99461.58;25069;1314;3055495;-60
2022/06/27 09:25:05;;;;;;;5.30;2.40;;;;;;;30.49;32.26;99457.02;25048;1313;3026540;-62
2022/06/27 09:27:38;;;;;;;4.30;2.00;;;;;;;30.62;32.01;99462.91;25049;1315;3059043;-59
2022/06/27 09:30:22;;;;;;;3.70;2.10;;;;;;;30.73;31.85;99464.45;25114;1316;3026369;-60
2022/06/27 09:32:53;;;;;;;11.00;2.70;;;;;;;30.89;31.89;99460.10;25118;1313;3055413;-60
2022/06/27 09:35:26;;;;;;;6.80;2.60;;;;;;;30.91;31.73;99460.20;25075;1316;3026734;-62
2022/06/27 09:37:59;;;;;;;2.70;2.10;;;;;;;30.75;31.87;99460.04;25123;1313;3068862;-60
2022/06/27 09:40:30;;;;;;;7.70;2.60;;;;;;;30.73;32.16;99460.31;25097;1314;3027620;-62
2022/06/27 09:42:59;;;;;;;10.20;2.80;;;;;;;30.74;32.22;99457.36;25135;1313;3026954;-60
2022/06/27 09:45:29;;;;;;;7.20;2.40;;;;;;;30.80;31.77;99443.05;25081;1315;3026302;-61
2022/06/27 09:48:01;;;;;;;5.60;2.40;;;;;;;30.71;31.29;99451.48;25096;1313;3047429;-59
2022/06/27 09:50:33;;;;;;;5.10;2.70;;;;;;;30.82;31.00;99455.59;25106;1313;3026300;-62
2022/06/27 09:53:02;;;;;;;6.50;2.50;;;;;;;31.05;30.60;99445.58;25120;1315;3027388;-61
2022/06/27 09:55:32;;;;;;;8.90;2.20;;;;;;;31.23;29.91;99444.01;25065;1313;3026625;-60
2022/06/27 09:58:03;;;;;;;6.00;2.40;;;;;;;31.28;29.81;99442.85;25107;1315;3026431;-61
2022/06/27 10:00:33;;;;;;;8.40;2.40;;;;;;;31.16;30.16;99438.52;25110;1313;3026676;-60
2022/06/27 10:03:04;;;;;;;7.00;2.60;;;;;;;31.27;30.05;99435.86;25026;1313;3026247;-62
2022/06/27 10:05:34;;;;;;;5.00;2.30;;;;;;;31.31;29.75;99438.86;25102;1313;3026598;-60
2022/06/27 10:08:05;;;;;;;11.60;2.40;;;;;;;31.46;29.57;99431.75;25079;1313;3026310;-61
2022/06/27 10:11:08;;;;;;;19.70;2.00;;;;;;;31.62;29.33;99435.71;25056;1315;3026264;-60
2022/06/27 10:13:39;;;;;;;7.30;2.30;;;;;;;31.57;29.07;99432.42;25049;1313;3054722;-60
2022/06/27 10:16:12;;;;;;;8.70;2.40;;;;;;;31.49;29.04;99430.75;25075;1313;3027100;-60
2022/06/27 10:19:00;;;;;;;7.20;2.50;;;;;;;31.48;29.08;99433.77;25080;1315;3026475;-60
2022/06/27 10:21:35;;;;;;;7.00;2.50;;;;;;;31.45;29.64;99426.70;25101;1313;3052477;-60
2022/06/27 10:24:26;;;;;;;4.20;2.40;;;;;;;31.30;29.33;99429.17;25047;1316;3055453;-59
2022/06/27 10:26:56;;;;;;;9.60;2.30;;;;;;;31.44;29.29;99428.39;25104;1313;3071173;-58
2022/06/27 10:29:42;;;;;;;3.60;2.30;;;;;;;31.72;28.96;99425.33;25131;1313;3028088;-59
2022/06/27 10:32:46;;;;;;;5.60;2.30;;;;;;;31.76;28.47;99424.48;25124;1315;3052284;-60
2022/06/27 10:35:15;;;;;;;11.40;2.40;;;;;;;31.92;28.28;99422.52;24954;1315;3052916;-58
2022/06/27 10:37:45;;;;;;;7.50;2.30;;;;;;;31.91;28.17;99422.02;25039;1313;3028829;-59
2022/06/27 10:40:20;;;;;;;12.20;2.40;;;;;;;31.95;28.06;99426.63;25090;1315;3026591;-60
2022/06/27 10:42:49;;;;;;;5.80;2.40;;;;;;;31.95;27.98;99421.07;25076;1318;3055479;-62
2022/06/27 10:45:21;;;;;;;7.40;2.30;;;;;;;32.15;28.03;99424.85;25070;1312;3026201;-61
2022/06/27 10:47:55;;;;;;;4.60;2.50;;;;;;;32.30;27.94;99422.55;25011;1313;3026371;-61
2022/06/27 10:50:28;;;;;;;4.30;2.00;;;;;;;32.47;27.32;99426.84;25814;1313;3055209;-60
2022/06/27 10:53:24;;;;;;;9.50;2.10;;;;;;;32.45;26.82;99429.58;25577;1313;3051783;-61
2022/06/27 10:55:53;;;;;;;6.90;2.50;;;;;;;32.29;26.57;99427.58;25777;1313;3071996;-59
2022/06/27 10:58:23;;;;;;;8.70;2.00;;;;;;;32.33;27.04;99424.25;25051;1313;3026078;-61
2022/06/27 11:00:52;;;;;;;7.50;2.70;;;;;;;32.32;27.34;99421.08;25060;1313;3027087;-60
2022/06/27 11:03:23;;;;;;;7.80;2.50;;;;;;;32.36;27.92;99421.23;25094;1313;3026633;-62
2022/06/27 11:06:06;;;;;;;5.50;2.50;;;;;;;32.43;28.00;99423.39;25102;1313;3049060;-62
2022/06/27 11:08:36;;;;;;;5.10;2.50;;;;;;;32.60;27.04;99416.70;25048;1313;3055570;-61
2022/06/27 11:11:06;;;;;;;9.80;2.20;;;;;;;32.74;26.75;99408.73;25082;1313;3026891;-60
2022/06/27 11:13:45;;;;;;;8.70;2.50;;;;;;;32.95;26.35;99402.95;25129;1315;3026615;-60
2022/06/27 11:16:25;;;;;;;8.50;2.20;;;;;;;33.13;25.95;99407.88;25049;1313;3049501;-60
2022/06/27 11:19:02;;;;;;;14.50;2.40;;;;;;;33.23;25.49;99405.17;25062;1313;3055532;-61
2022/06/27 11:21:36;;;;;;;9.10;2.10;;;;;;;33.30;24.97;99407.02;25112;1313;3054180;-59
2022/06/27 11:24:09;;;;;;;8.80;2.30;;;;;;;33.35;24.71;99406.06;25100;1313;3070818;-59
2022/06/27 11:26:49;;;;;;;8.90;2.30;;;;;;;33.41;24.36;99400.02;25054;1313;3026817;-61
2022/06/27 11:32:09;;;;;;;5.50;2.50;;;;;;;33.43;24.41;99405.07;25110;1312;3055385;-60
2022/06/27 11:34:47;;;;;;;5.70;2.40;;;;;;;33.35;24.43;99402.03;25116;1315;3027910;-62
2022/06/27 11:37:18;;;;;;;10.00;2.20;;;;;;;33.57;24.11;99402.20;25022;1316;3052637;-60
2022/06/27 11:40:06;;;;;;;7.90;2.50;;;;;;;33.63;24.44;99403.18;25097;1313;3026927;-61
2022/06/27 11:42:36;;;;;;;5.70;2.20;;;;;;;33.56;24.65;99404.69;25108;1315;3054325;-61
2022/06/27 11:45:06;;;;;;;6.10;2.40;;;;;;;33.68;24.65;99409.90;25082;1313;3027504;-60